Time;durP1;ratioP1;P1;durP2;ratioP2;P2;SDS_P1;SDS_P2;PMS_P1;PMS_P2;Temp;Humidity;BMP_temperature;BMP_pressure;BME280_temperature;BME280_humidity;BME280_pressure;Samples;Min_cycle;Max_cycle;Signal;HPM_P1;HPM_P2
2024/01/14 00:00:10;;;;;;;86.20;24.43;;;;;;;;;;6062271;23;20275;-92
2024/01/14 00:03:16;;;;;;;82.10;24.60;;;;;;;;;;6055956;23;20167;-91
2024/01/14 00:06:22;;;;;;;93.37;24.93;;;;;;;;;;6057946;23;20159;-90
2024/01/14 00:09:38;;;;;;;94.53;24.53;;;;;;;;;;6058650;23;20155;-89
2024/01/14 00:12:44;;;;;;;91.63;23.77;;;;;;;;;;6057029;23;20173;-94
2024/01/14 00:15:51;;;;;;;89.53;24.63;;;;;;;;;;6057158;23;20248;-91
2024/01/14 00:18:58;;;;;;;90.27;24.10;;;;;;;;;;6056662;23;20636;-89
2024/01/14 00:22:03;;;;;;;92.90;25.63;;;;;;;;;;6057123;23;20247;-88
2024/01/14 00:25:11;;;;;;;94.43;25.80;;;;;;;;;;6057907;23;20183;-92
2024/01/14 00:28:20;;;;;;;84.53;22.23;;;;;;;;;;6057757;23;20172;-93
2024/01/14 00:31:25;;;;;;;79.93;23.60;;;;;;;;;;6058090;23;20171;-91
2024/01/14 00:34:32;;;;;;;80.67;22.07;;;;;;;;;;6056960;23;20293;-93
2024/01/14 00:37:38;;;;;;;77.03;23.83;;;;;;;;;;6056146;23;20167;-94
2024/01/14 00:40:43;;;;;;;78.37;21.93;;;;;;;;;;6057601;23;20271;-92
2024/01/14 00:43:48;;;;;;;84.60;23.70;;;;;;;;;;6057462;23;20183;-90
2024/01/14 00:46:54;;;;;;;80.13;23.73;;;;;;;;;;6111837;23;20225;-91
2024/01/14 00:50:01;;;;;;;76.20;20.23;;;;;;;;;;6113577;23;20177;-89
2024/01/14 00:53:06;;;;;;;77.93;23.57;;;;;;;;;;6128244;23;20178;-89
2024/01/14 00:56:13;;;;;;;71.13;22.27;;;;;;;;;;6130292;23;20229;-89
2024/01/14 00:59:18;;;;;;;74.40;22.20;;;;;;;;;;6112717;23;20166;-90
2024/01/14 01:02:23;;;;;;;76.23;24.60;;;;;;;;;;6113356;23;20174;-89
2024/01/14 01:05:30;;;;;;;77.70;24.13;;;;;;;;;;6111935;23;20184;-88
2024/01/14 01:08:38;;;;;;;79.67;23.90;;;;;;;;;;6130000;23;20170;-89
2024/01/14 01:11:43;;;;;;;76.93;22.60;;;;;;;;;;6129302;23;20202;-88
2024/01/14 01:14:49;;;;;;;72.50;23.07;;;;;;;;;;6129323;23;20299;-90
2024/01/14 01:17:54;;;;;;;79.63;24.13;;;;;;;;;;6129963;23;20166;-94
2024/01/14 01:21:01;;;;;;;71.27;22.13;;;;;;;;;;6130028;23;20170;-91
2024/01/14 01:24:08;;;;;;;72.67;22.60;;;;;;;;;;6111830;23;20182;-88
2024/01/14 01:27:14;;;;;;;72.23;22.60;;;;;;;;;;6111121;23;20158;-90
2024/01/14 01:30:19;;;;;;;75.93;22.00;;;;;;;;;;6112380;23;20630;-92
2024/01/14 01:33:24;;;;;;;78.20;22.83;;;;;;;;;;6112161;23;20239;-93
2024/01/14 01:36:30;;;;;;;75.10;22.60;;;;;;;;;;6112215;23;20205;-92
2024/01/14 01:39:35;;;;;;;72.43;23.10;;;;;;;;;;6127837;23;20226;-90
2024/01/14 01:42:41;;;;;;;77.23;23.03;;;;;;;;;;6110233;23;20236;-93
2024/01/14 01:45:46;;;;;;;70.07;22.47;;;;;;;;;;6111315;23;20181;-90
2024/01/14 01:48:52;;;;;;;76.43;22.30;;;;;;;;;;6129027;23;20174;-90
2024/01/14 01:51:59;;;;;;;70.00;21.87;;;;;;;;;;6113426;23;20662;-93
2024/01/14 01:55:06;;;;;;;60.43;20.13;;;;;;;;;;6111547;23;20653;-90
2024/01/14 01:58:12;;;;;;;65.50;20.63;;;;;;;;;;6111997;23;20154;-89
2024/01/14 02:01:17;;;;;;;65.70;21.67;;;;;;;;;;6112505;23;20150;-94
2024/01/14 02:04:23;;;;;;;69.40;21.77;;;;;;;;;;6129015;23;20218;-90
2024/01/14 02:07:30;;;;;;;62.57;20.80;;;;;;;;;;6112258;23;20247;-91
2024/01/14 02:10:36;;;;;;;60.67;20.50;;;;;;;;;;6110365;23;20173;-91
2024/01/14 02:13:41;;;;;;;63.00;20.77;;;;;;;;;;6110223;23;20165;-89
2024/01/14 02:16:46;;;;;;;74.20;21.23;;;;;;;;;;6112651;23;20264;-92
2024/01/14 02:19:52;;;;;;;65.77;20.43;;;;;;;;;;6112579;23;20218;-92
2024/01/14 02:22:59;;;;;;;71.17;22.23;;;;;;;;;;6112232;23;20629;-90
2024/01/14 02:26:06;;;;;;;70.77;21.40;;;;;;;;;;6128543;23;20247;-91
2024/01/14 02:29:12;;;;;;;64.90;20.37;;;;;;;;;;6111483;23;20166;-90
2024/01/14 02:32:17;;;;;;;66.27;20.77;;;;;;;;;;6112972;23;20158;-92
2024/01/14 02:35:22;;;;;;;62.67;21.13;;;;;;;;;;6112772;23;20613;-92
2024/01/14 02:38:27;;;;;;;73.80;23.07;;;;;;;;;;6112851;23;20166;-91
2024/01/14 02:41:36;;;;;;;61.67;20.93;;;;;;;;;;6111735;23;20187;-92
2024/01/14 02:44:42;;;;;;;55.43;19.97;;;;;;;;;;6110397;23;20165;-92
2024/01/14 02:47:47;;;;;;;67.33;22.70;;;;;;;;;;6110734;23;20262;-90
2024/01/14 02:50:52;;;;;;;65.83;21.57;;;;;;;;;;6111831;23;20242;-89
2024/01/14 02:53:58;;;;;;;62.00;19.97;;;;;;;;;;6128592;23;20246;-93
2024/01/14 02:57:05;;;;;;;59.80;19.73;;;;;;;;;;6129190;23;20181;-90
2024/01/14 03:00:11;;;;;;;64.47;20.87;;;;;;;;;;6112379;23;20243;-91
2024/01/14 03:03:17;;;;;;;64.30;21.70;;;;;;;;;;6128472;23;20170;-93
2024/01/14 03:06:22;;;;;;;59.37;19.03;;;;;;;;;;6129824;23;20154;-88
2024/01/14 03:09:27;;;;;;;59.97;20.43;;;;;;;;;;6112908;23;20165;-92
2024/01/14 03:12:34;;;;;;;68.23;20.67;;;;;;;;;;6112753;23;20240;-93
2024/01/14 03:15:39;;;;;;;64.77;20.10;;;;;;;;;;6113391;23;20193;-91
2024/01/14 03:18:45;;;;;;;63.63;19.70;;;;;;;;;;6112238;23;20214;-90
2024/01/14 03:21:53;;;;;;;58.23;19.87;;;;;;;;;;6112881;23;20174;-90
2024/01/14 03:24:58;;;;;;;60.77;19.20;;;;;;;;;;6131228;23;20158;-90
2024/01/14 03:28:06;;;;;;;66.53;19.93;;;;;;;;;;6115700;23;20166;-90
2024/01/14 03:31:15;;;;;;;64.13;20.87;;;;;;;;;;6130990;23;20241;-93
2024/01/14 03:34:20;;;;;;;61.33;20.67;;;;;;;;;;6130772;23;20244;-91
2024/01/14 03:37:25;;;;;;;63.07;21.17;;;;;;;;;;6128338;23;20246;-90
2024/01/14 03:40:30;;;;;;;62.03;21.53;;;;;;;;;;6109847;23;20181;-91
2024/01/14 03:43:37;;;;;;;60.73;19.57;;;;;;;;;;6126754;23;20165;-91
2024/01/14 03:46:43;;;;;;;58.53;18.73;;;;;;;;;;6109697;23;20317;-92
2024/01/14 03:49:48;;;;;;;57.43;20.27;;;;;;;;;;6125027;23;20174;-92
2024/01/14 03:52:53;;;;;;;62.27;21.27;;;;;;;;;;6125941;23;20158;-90
2024/01/14 03:55:58;;;;;;;60.90;19.53;;;;;;;;;;6127472;23;20279;-90
2024/01/14 03:59:06;;;;;;;65.63;20.90;;;;;;;;;;6112385;23;20202;-90
2024/01/14 04:02:11;;;;;;;60.10;20.13;;;;;;;;;;6111606;23;20245;-89
2024/01/14 04:05:16;;;;;;;58.93;19.33;;;;;;;;;;6112940;23;20262;-91
2024/01/14 04:08:21;;;;;;;69.90;20.40;;;;;;;;;;6112968;23;20163;-90
2024/01/14 04:11:26;;;;;;;61.17;19.10;;;;;;;;;;6112241;23;20162;-90
2024/01/14 04:14:33;;;;;;;57.90;18.17;;;;;;;;;;6133350;23;20166;-89
2024/01/14 04:17:39;;;;;;;52.67;18.43;;;;;;;;;;6116564;23;20201;-91
2024/01/14 04:20:45;;;;;;;61.13;18.27;;;;;;;;;;6115387;23;20169;-90
2024/01/14 04:23:50;;;;;;;53.87;16.77;;;;;;;;;;6115481;23;20174;-92
2024/01/14 04:26:56;;;;;;;52.67;16.80;;;;;;;;;;6114178;23;20226;-89
2024/01/14 04:30:03;;;;;;;54.47;18.63;;;;;;;;;;6114825;23;20202;-91
2024/01/14 04:33:09;;;;;;;54.80;18.73;;;;;;;;;;6131385;23;20169;-90
2024/01/14 04:36:13;;;;;;;47.70;16.87;;;;;;;;;;6112006;23;20197;-92
2024/01/14 04:39:19;;;;;;;51.27;17.70;;;;;;;;;;6113216;23;20165;-90
2024/01/14 04:42:24;;;;;;;49.60;17.60;;;;;;;;;;6111130;23;20174;-90
2024/01/14 04:45:30;;;;;;;50.83;17.77;;;;;;;;;;6130354;23;20172;-91
2024/01/14 04:48:36;;;;;;;60.07;19.40;;;;;;;;;;6112381;23;20222;-91
2024/01/14 04:51:41;;;;;;;52.57;18.10;;;;;;;;;;6113786;23;20264;-92
2024/01/14 04:54:49;;;;;;;50.70;17.70;;;;;;;;;;6114219;23;20158;-93
2024/01/14 04:57:55;;;;;;;51.90;17.20;;;;;;;;;;6114106;23;20188;-90
2024/01/14 05:01:02;;;;;;;58.77;17.83;;;;;;;;;;6131150;23;20167;-89
2024/01/14 05:04:09;;;;;;;47.93;17.13;;;;;;;;;;6115304;23;20222;-92
2024/01/14 05:07:14;;;;;;;53.27;17.30;;;;;;;;;;6113762;23;20174;-90
2024/01/14 05:10:19;;;;;;;51.63;16.80;;;;;;;;;;6114439;23;20158;-92
2024/01/14 05:13:25;;;;;;;59.20;18.13;;;;;;;;;;6129404;23;20190;-90
2024/01/14 05:16:31;;;;;;;49.57;17.13;;;;;;;;;;6129723;23;20259;-89
2024/01/14 05:19:40;;;;;;;47.70;15.47;;;;;;;;;;6114773;23;20157;-92
2024/01/14 05:22:45;;;;;;;50.50;17.90;;;;;;;;;;6112181;23;20282;-91
2024/01/14 05:26:00;;;;;;;45.03;16.17;;;;;;;;;;6134579;23;20177;-88
2024/01/14 05:29:06;;;;;;;48.63;16.03;;;;;;;;;;6114617;23;20203;-91
2024/01/14 05:32:13;;;;;;;45.80;15.80;;;;;;;;;;6112485;23;20299;-90
2024/01/14 05:35:18;;;;;;;46.63;16.23;;;;;;;;;;6114520;23;20170;-92
2024/01/14 05:38:23;;;;;;;47.90;16.20;;;;;;;;;;6129923;23;20273;-91
2024/01/14 13:34:39;;;;;;;31.87;11.77;;;;;;;;;;6029656;23;20248;-91
2024/01/14 13:37:45;;;;;;;28.40;9.13;;;;;;;;;;6090980;23;20206;-88
2024/01/14 13:40:52;;;;;;;33.73;10.17;;;;;;;;;;6092226;23;20153;-90
2024/01/14 13:43:58;;;;;;;30.33;10.40;;;;;;;;;;6091500;23;20190;-90
2024/01/14 13:47:04;;;;;;;26.37;10.37;;;;;;;;;;6091979;23;20174;-89
2024/01/14 13:50:30;;;;;;;26.10;10.60;;;;;;;;;;6092580;23;20153;-92
2024/01/14 13:57:11;;;;;;;24.90;9.07;;;;;;;;;;6089576;23;20214;-92
2024/01/14 14:00:17;;;;;;;25.93;10.23;;;;;;;;;;6090137;23;20203;-91
2024/01/14 14:06:44;;;;;;;27.20;10.03;;;;;;;;;;6090605;23;20265;-92
2024/01/14 14:09:52;;;;;;;28.90;10.47;;;;;;;;;;6091105;23;20161;-92
2024/01/14 14:13:04;;;;;;;27.90;10.77;;;;;;;;;;6091925;23;20175;-91
2024/01/14 14:16:10;;;;;;;27.07;10.30;;;;;;;;;;6091243;23;20188;-92
2024/01/14 14:22:35;;;;;;;28.83;11.00;;;;;;;;;;6091157;23;20219;-91
2024/01/14 14:25:49;;;;;;;29.93;10.63;;;;;;;;;;6092538;23;20151;-91
2024/01/14 14:28:59;;;;;;;27.43;10.37;;;;;;;;;;6091738;23;20178;-91
2024/01/14 14:32:07;;;;;;;33.47;10.90;;;;;;;;;;6090322;23;20171;-92
2024/01/14 14:35:14;;;;;;;28.17;10.87;;;;;;;;;;6090913;23;20182;-90
2024/01/14 14:38:24;;;;;;;33.90;11.80;;;;;;;;;;6091672;23;20284;-94
2024/01/14 14:41:32;;;;;;;32.67;11.33;;;;;;;;;;6091832;23;20199;-92
2024/01/14 14:48:05;;;;;;;34.67;12.23;;;;;;;;;;6091463;23;20179;-93
2024/01/14 14:51:13;;;;;;;32.20;11.73;;;;;;;;;;6090695;23;20192;-92
2024/01/14 14:57:40;;;;;;;35.60;12.33;;;;;;;;;;6090384;23;20243;-92
2024/01/14 15:00:50;;;;;;;34.03;12.30;;;;;;;;;;6090134;23;20176;-91
2024/01/14 15:04:01;;;;;;;35.23;12.70;;;;;;;;;;6090675;23;20175;-92
2024/01/14 15:07:09;;;;;;;33.10;11.30;;;;;;;;;;6088739;23;20200;-92
2024/01/14 15:10:17;;;;;;;33.10;11.30;;;;;;;;;;6088940;23;20174;-93
2024/01/14 15:13:22;;;;;;;34.90;12.33;;;;;;;;;;6088459;23;20158;-93
2024/01/14 15:16:29;;;;;;;35.37;11.57;;;;;;;;;;6088475;23;20191;-92
2024/01/14 15:19:39;;;;;;;36.43;12.47;;;;;;;;;;6091463;23;20190;-90
2024/01/14 15:22:52;;;;;;;40.27;13.27;;;;;;;;;;6092865;23;20227;-92
2024/01/14 15:26:03;;;;;;;36.20;12.40;;;;;;;;;;6092575;23;20179;-91
2024/01/14 15:32:44;;;;;;;38.97;13.13;;;;;;;;;;6092550;23;20192;-93
2024/01/14 15:39:22;;;;;;;37.30;13.23;;;;;;;;;;6092158;23;20180;-93
2024/01/14 15:42:28;;;;;;;42.57;13.53;;;;;;;;;;6091755;23;20158;-92
2024/01/14 15:45:37;;;;;;;41.87;13.53;;;;;;;;;;6090385;23;20170;-91
2024/01/14 15:48:44;;;;;;;39.13;12.77;;;;;;;;;;6091407;23;20236;-94
2024/01/14 15:51:51;;;;;;;42.07;14.33;;;;;;;;;;6093606;23;20198;-92
2024/01/14 15:55:09;;;;;;;47.03;14.63;;;;;;;;;;6094130;23;20199;-93
2024/01/14 23:00:52;;;;;;;61.60;18.80;;;;;;;;;;6031572;23;20215;-91
2024/01/14 23:03:58;;;;;;;53.73;17.57;;;;;;;;;;6087511;23;20174;-92
2024/01/14 23:07:04;;;;;;;60.53;19.37;;;;;;;;;;6087497;23;20194;-92
2024/01/14 23:10:10;;;;;;;55.27;18.60;;;;;;;;;;6087018;23;20219;-92
2024/01/14 23:13:16;;;;;;;60.47;18.17;;;;;;;;;;6086568;23;20174;-93
2024/01/14 23:16:31;;;;;;;59.03;18.53;;;;;;;;;;6089687;23;20179;-89
2024/01/14 23:19:37;;;;;;;58.47;19.40;;;;;;;;;;6085892;23;20162;-90
2024/01/14 23:22:42;;;;;;;55.63;17.70;;;;;;;;;;6083943;23;20182;-91
2024/01/14 23:25:47;;;;;;;62.63;19.00;;;;;;;;;;6083341;23;20169;-90
2024/01/14 23:28:53;;;;;;;60.87;18.83;;;;;;;;;;6087023;23;20174;-90
2024/01/14 23:31:59;;;;;;;63.53;19.73;;;;;;;;;;6083472;23;20492;-91
2024/01/14 23:35:05;;;;;;;56.93;18.70;;;;;;;;;;6083140;23;20240;-92
2024/01/14 23:38:11;;;;;;;55.03;19.00;;;;;;;;;;6088007;23;20222;-93
2024/01/14 23:41:17;;;;;;;50.87;18.03;;;;;;;;;;6084416;23;20462;-91
2024/01/14 23:44:24;;;;;;;55.03;18.80;;;;;;;;;;6084986;23;20174;-90
2024/01/14 23:47:35;;;;;;;62.20;18.90;;;;;;;;;;6083969;23;20262;-92
2024/01/14 23:50:40;;;;;;;62.47;19.77;;;;;;;;;;6087057;23;20211;-91
2024/01/14 23:53:50;;;;;;;55.20;17.90;;;;;;;;;;6086161;23;20638;-93
2024/01/14 23:56:57;;;;;;;57.40;19.23;;;;;;;;;;6087700;23;20175;-92
